Time;durP1;ratioP1;P1;durP2;ratioP2;P2;SDS_P1;SDS_P2;PMS_P1;PMS_P2;Temp;Humidity;BMP_temperature;BMP_pressure;BME280_temperature;BME280_humidity;BME280_pressure;Samples;Min_cycle;Max_cycle;Signal;HPM_P1;HPM_P2
2023/01/30 00:00:31;;;;;;;19.07;14.10;;;0.30;1.00;;;;;;5094756;28;20195;-36
2023/01/30 00:02:57;;;;;;;21.17;14.93;;;0.30;1.00;;;;;;5115800;28;20405;-36
2023/01/30 00:05:22;;;;;;;18.20;14.30;;;0.30;1.00;;;;;;5115803;28;20439;-36
2023/01/30 00:07:48;;;;;;;17.07;13.57;;;0.30;1.00;;;;;;5115821;28;20179;-37
2023/01/30 00:10:14;;;;;;;18.00;13.50;;;0.30;1.00;;;;;;5116921;28;20410;-37
2023/01/30 00:12:39;;;;;;;17.90;13.13;;;0.30;1.00;;;;;;5117140;28;20187;-37
2023/01/30 00:15:05;;;;;;;17.27;13.43;;;0.30;1.00;;;;;;5096807;28;20238;-37
2023/01/30 00:17:31;;;;;;;19.00;13.87;;;0.30;1.00;;;;;;5097084;28;20522;-38
2023/01/30 00:19:57;;;;;;;17.83;13.93;;;0.30;1.00;;;;;;5097500;28;20441;-37
2023/01/30 00:22:23;;;;;;;19.70;12.50;;;0.30;1.00;;;;;;5113552;28;20423;-37
2023/01/30 00:24:48;;;;;;;18.07;13.20;;;0.20;1.00;;;;;;5097145;28;20339;-37
2023/01/30 00:27:14;;;;;;;18.17;13.27;;;0.20;1.00;;;;;;5096961;28;20249;-37
2023/01/30 00:29:39;;;;;;;20.93;13.40;;;0.30;1.00;;;;;;5096310;28;20208;-37
2023/01/30 00:32:05;;;;;;;19.00;14.10;;;0.20;1.00;;;;;;5096528;28;20204;-36
2023/01/30 00:34:31;;;;;;;14.97;11.73;;;0.30;1.00;;;;;;5096560;28;20290;-37
2023/01/30 00:36:56;;;;;;;15.87;12.53;;;0.30;1.00;;;;;;5096944;28;20201;-36
2023/01/30 00:39:22;;;;;;;18.13;13.10;;;0.30;1.00;;;;;;5094437;28;20176;-36
2023/01/30 00:47:16;;;;;;;17.67;12.90;;;0.20;1.00;;;;;;5096488;28;20433;-37
2023/01/30 00:49:42;;;;;;;15.30;11.83;;;0.20;1.00;;;;;;5096810;28;20828;-38
2023/01/30 00:52:07;;;;;;;18.50;13.77;;;0.20;1.00;;;;;;5097936;28;20275;-36
2023/01/30 00:54:33;;;;;;;15.70;12.97;;;0.20;1.00;;;;;;5098191;28;20688;-36
2023/01/30 00:56:59;;;;;;;18.83;12.83;;;0.20;1.00;;;;;;5105783;28;20207;-37
2023/01/30 00:59:26;;;;;;;17.23;12.90;;;0.20;1.00;;;;;;5118338;28;20827;-36
2023/01/30 01:01:52;;;;;;;16.87;12.50;;;0.20;1.00;;;;;;5119152;28;20528;-36
2023/01/30 01:04:17;;;;;;;16.37;12.63;;;0.20;1.00;;;;;;5120219;28;20425;-36
2023/01/30 01:06:43;;;;;;;17.27;12.17;;;0.20;1.00;;;;;;5120196;28;20305;-35
2023/01/30 01:09:08;;;;;;;17.07;12.60;;;0.10;1.00;;;;;;5120028;28;20179;-36
2023/01/30 01:11:34;;;;;;;16.03;13.07;;;0.20;1.00;;;;;;5120978;28;20295;-36
2023/01/30 01:14:02;;;;;;;18.67;12.87;;;0.10;1.00;;;;;;5120219;28;20176;-37
2023/01/30 01:16:28;;;;;;;15.70;12.40;;;0.10;1.00;;;;;;5120181;28;20465;-37
2023/01/30 01:18:54;;;;;;;17.60;12.70;;;0.10;1.00;;;;;;5119898;28;20827;-36
2023/01/30 01:21:21;;;;;;;18.37;13.83;;;0.10;1.00;;;;;;5119412;28;20426;-36
2023/01/30 01:23:51;;;;;;;17.80;13.00;;;0.10;1.00;;;;;;5119409;28;20663;-37
2023/01/30 01:26:16;;;;;;;9.50;6.30;;;0.20;1.00;;;;;;5120305;28;20418;-36
2023/01/30 01:28:42;;;;;;;15.60;10.77;;;2.20;1.00;;;;;;5117936;28;20924;-37
2023/01/30 01:31:09;;;;;;;18.00;13.40;;;3.90;1.00;;;;;;5120768;28;20201;-37
2023/01/30 01:33:34;;;;;;;21.33;16.57;;;4.20;1.00;;;;;;5120601;28;20183;-37
2023/01/30 01:36:00;;;;;;;25.33;18.37;;;4.00;1.00;;;;;;5120770;28;20575;-38
2023/01/30 01:38:26;;;;;;;18.77;14.80;;;3.50;1.00;;;;;;5121284;28;20187;-37
2023/01/30 01:41:08;;;;;;;18.27;14.20;;;3.10;1.00;;;;;;5120136;28;20176;-36
2023/01/30 01:43:59;;;;;;;18.70;13.43;;;2.60;99.90;;;;;;5120065;28;20194;-36
2023/01/30 01:46:27;;;;;;;16.70;12.50;;;2.10;1.00;;;;;;5110281;28;20430;-36
2023/01/30 01:48:55;;;;;;;18.77;13.97;;;1.80;88.80;;;;;;5119868;28;20429;-37
2023/01/30 01:51:47;;;;;;;17.20;13.80;;;1.60;99.90;;;;;;5119123;28;20424;-36
2023/01/30 01:54:16;;;;;;;17.47;13.30;;;1.40;99.90;;;;;;5119668;28;20433;-36
2023/01/30 01:56:45;;;;;;;15.87;12.53;;;1.20;1.00;;;;;;5120581;28;20421;-36
2023/01/30 01:59:23;;;;;;;16.90;14.23;;;1.10;1.00;;;;;;5118310;28;20438;-37
2023/01/30 02:01:49;;;;;;;18.00;13.07;;;1.10;99.90;;;;;;5118547;28;20422;-36
2023/01/30 02:05:00;;;;;;;18.23;14.20;;;1.00;15.50;;;;;;5117520;28;20925;-36
2023/01/30 02:07:00;;;;;;;15.40;12.30;;;0.90;1.00;;;;;;5118281;28;20498;-36
2023/01/30 02:09:26;;;;;;;16.30;12.70;;;0.80;1.00;;;;;;5117111;28;20835;-36
2023/01/30 02:11:55;;;;;;;16.20;13.17;;;0.80;99.90;;;;;;5118474;28;20211;-36
2023/01/30 02:14:21;;;;;;;16.90;13.17;;;0.70;99.90;;;;;;5117260;28;20262;-36
2023/01/30 02:16:46;;;;;;;16.23;13.50;;;0.70;99.90;;;;;;5117949;28;20500;-36
2023/01/30 02:19:33;;;;;;;18.57;14.37;;;0.70;13.40;;;;;;5117675;28;20434;-36
2023/01/30 02:22:05;;;;;;;16.57;12.80;;;0.70;1.00;;;;;;5118357;28;20167;-35
2023/01/30 02:24:58;;;;;;;15.57;13.10;;;0.60;1.00;;;;;;5117067;28;20805;-36
2023/01/30 02:27:35;;;;;;;17.20;11.63;;;0.60;99.90;;;;;;5118216;28;20410;-36
2023/01/30 02:30:28;;;;;;;16.90;13.60;;;0.50;99.90;;;;;;5117301;28;20413;-36
2023/01/30 02:33:13;;;;;;;18.73;13.70;;;0.50;96.70;;;;;;5118089;28;20413;-36
2023/01/30 02:36:14;;;;;;;16.00;12.30;;;0.50;1.00;;;;;;5118002;28;20472;-37
2023/01/30 02:38:51;;;;;;;16.47;12.63;;;0.40;1.00;;;;;;5097917;28;20740;-36
2023/01/30 02:41:35;;;;;;;17.33;13.03;;;0.30;1.00;;;;;;5118251;28;20409;-36
2023/01/30 02:44:05;;;;;;;17.37;13.70;;;0.30;1.00;;;;;;5117495;28;20421;-36
2023/01/30 02:47:05;;;;;;;17.97;13.20;;;0.30;99.90;;;;;;5117384;28;20425;-37
2023/01/30 02:49:37;;;;;;;15.60;13.10;;;0.30;99.90;;;;;;5105284;28;20870;-36
2023/01/30 02:52:04;;;;;;;18.40;13.97;;;0.20;99.90;;;;;;5116592;28;20819;-36
2023/01/30 02:54:30;;;;;;;18.17;13.97;;;0.20;99.90;;;;;;5115979;28;20425;-36
2023/01/30 02:56:59;;;;;;;19.07;14.70;;;0.10;99.90;;;;;;5117168;28;20816;-36
2023/01/30 02:59:33;;;;;;;18.43;13.43;;;0.10;99.90;;;;;;5115084;28;20244;-36
2023/01/30 03:02:09;;;;;;;15.60;13.33;;;0.10;99.90;;;;;;5101366;28;20433;-36
2023/01/30 03:04:44;;;;;;;16.07;12.80;;;0.10;99.90;;;;;;5112278;28;20444;-35
2023/01/30 03:07:21;;;;;;;19.80;13.80;;;0.00;99.90;;;;;;5117188;28;20439;-36
2023/01/30 03:10:08;;;;;;;15.53;12.70;;;0.00;99.90;;;;;;5116628;28;20729;-36
2023/01/30 03:12:42;;;;;;;17.97;14.00;;;0.00;99.90;;;;;;5116214;28;20412;-36
2023/01/30 03:15:22;;;;;;;18.60;13.60;;;0.00;99.90;;;;;;5114532;28;20553;-36
2023/01/30 03:17:48;;;;;;;15.27;12.40;;;0.00;99.90;;;;;;5115323;28;20688;-36
2023/01/30 03:20:15;;;;;;;17.83;12.23;;;-0.10;99.90;;;;;;5114725;28;20734;-37
2023/01/30 03:22:41;;;;;;;17.67;13.67;;;-0.10;99.90;;;;;;5115030;28;20717;-36
2023/01/30 03:25:07;;;;;;;17.20;13.67;;;-0.10;99.90;;;;;;5116339;28;20609;-36
2023/01/30 03:27:34;;;;;;;15.37;12.50;;;-0.10;99.90;;;;;;5116347;28;20180;-37
2023/01/30 03:29:59;;;;;;;16.23;12.20;;;-0.20;99.90;;;;;;5116221;28;20421;-35
2023/01/30 03:32:25;;;;;;;16.03;12.57;;;-0.20;99.90;;;;;;5116470;28;20444;-36
2023/01/30 03:34:51;;;;;;;18.53;13.30;;;-0.20;99.90;;;;;;5098640;28;20569;-36
2023/01/30 03:37:16;;;;;;;16.00;11.83;;;-0.20;99.90;;;;;;5115730;28;20622;-35
2023/01/30 03:39:42;;;;;;;18.50;14.40;;;-0.20;99.90;;;;;;5115935;28;20172;-36
2023/01/30 03:42:08;;;;;;;15.87;12.50;;;-0.20;1.00;;;;;;5115914;28;20561;-36
2023/01/30 03:44:33;;;;;;;16.13;12.03;;;-0.20;1.00;;;;;;5116428;28;20182;-36
2023/01/30 03:46:59;;;;;;;15.50;12.10;;;-0.20;1.00;;;;;;5115372;28;20220;-36
2023/01/30 03:49:25;;;;;;;15.63;12.07;;;-0.20;1.00;;;;;;5115887;28;20180;-36
2023/01/30 03:51:50;;;;;;;13.07;11.40;;;-0.10;1.00;;;;;;5115212;28;20195;-35
2023/01/30 03:54:16;;;;;;;15.40;12.17;;;-0.10;39.10;;;;;;5116076;28;20493;-36
2023/01/30 03:56:41;;;;;;;17.10;12.67;;;-0.10;99.90;;;;;;5115734;28;20275;-36
2023/01/30 03:59:07;;;;;;;14.37;10.90;;;-0.10;99.90;;;;;;5115355;28;20228;-36
2023/01/30 04:01:33;;;;;;;14.73;11.40;;;0.00;99.90;;;;;;5114586;28;20176;-36
2023/01/30 04:03:58;;;;;;;14.23;10.13;;;0.00;99.90;;;;;;5115281;28;20183;-36
2023/01/30 04:06:24;;;;;;;16.03;11.40;;;0.10;99.90;;;;;;5115001;28;20241;-37
2023/01/30 04:08:52;;;;;;;14.80;10.90;;;0.10;99.90;;;;;;5115155;28;20198;-36
2023/01/30 04:11:18;;;;;;;15.43;12.00;;;0.10;99.90;;;;;;5114871;28;20278;-36
2023/01/30 04:13:43;;;;;;;15.00;11.90;;;0.10;99.90;;;;;;5115450;28;20445;-36
2023/01/30 04:16:15;;;;;;;13.90;12.03;;;0.20;99.90;;;;;;5115992;28;20466;-36
2023/01/30 04:18:40;;;;;;;15.20;11.50;;;0.20;99.90;;;;;;5115859;28;20184;-36
2023/01/30 04:21:06;;;;;;;16.23;11.37;;;0.20;99.90;;;;;;5116469;28;20418;-37
2023/01/30 04:23:32;;;;;;;15.07;11.50;;;0.20;99.90;;;;;;5115339;28;20356;-36
2023/01/30 04:25:57;;;;;;;11.90;10.10;;;0.30;99.90;;;;;;5115739;28;20686;-36
2023/01/30 04:28:23;;;;;;;14.97;11.47;;;0.30;99.90;;;;;;5118578;28;20299;-37
2023/01/30 04:30:48;;;;;;;15.60;11.93;;;0.30;99.90;;;;;;5119483;28;20302;-36
2023/01/30 04:33:14;;;;;;;15.27;11.73;;;0.30;99.90;;;;;;5119447;28;20205;-36
2023/01/30 04:35:39;;;;;;;15.67;12.33;;;0.30;91.40;;;;;;5118666;28;20203;-36
2023/01/30 04:38:05;;;;;;;14.07;11.37;;;0.40;25.60;;;;;;5119592;28;20168;-36
2023/01/30 04:40:31;;;;;;;15.97;11.67;;;0.30;1.00;;;;;;5117880;28;20241;-37
2023/01/30 04:42:57;;;;;;;13.73;10.43;;;0.30;1.00;;;;;;5117610;28;20191;-37
2023/01/30 04:45:22;;;;;;;13.30;10.07;;;0.30;1.00;;;;;;5118389;28;20491;-36
2023/01/30 04:47:48;;;;;;;13.67;10.60;;;0.30;1.00;;;;;;5118280;28;20179;-36
2023/01/30 04:50:13;;;;;;;12.10;10.47;;;0.30;1.00;;;;;;5115954;28;20511;-37
2023/01/30 04:52:39;;;;;;;14.97;11.97;;;0.40;1.00;;;;;;5099986;28;20196;-36
2023/01/30 04:55:05;;;;;;;14.67;11.17;;;0.40;1.00;;;;;;5110414;28;20276;-36
2023/01/30 04:57:30;;;;;;;15.10;11.90;;;0.40;1.00;;;;;;5118776;28;20237;-36
2023/01/30 04:59:56;;;;;;;13.00;10.90;;;0.50;1.00;;;;;;5118065;28;20842;-37
2023/01/30 05:02:23;;;;;;;12.83;10.17;;;0.50;1.00;;;;;;5100434;28;20228;-36
2023/01/30 05:04:49;;;;;;;14.57;12.10;;;0.50;1.00;;;;;;5114161;28;20168;-36
2023/01/30 05:07:15;;;;;;;14.30;10.90;;;0.50;1.00;;;;;;5098012;28;20433;-36
2023/01/30 05:09:40;;;;;;;12.43;9.93;;;0.60;1.00;;;;;;5098144;28;20624;-38
2023/01/30 05:12:06;;;;;;;13.50;10.00;;;0.60;43.00;;;;;;5097303;28;20200;-36
2023/01/30 05:14:33;;;;;;;13.43;11.00;;;0.70;54.80;;;;;;5097564;28;20173;-37
2023/01/30 05:16:59;;;;;;;12.90;10.30;;;0.70;45.80;;;;;;5097132;28;20180;-36
2023/01/30 05:19:25;;;;;;;13.67;11.03;;;0.70;31.60;;;;;;5098540;28;20434;-36
2023/01/30 05:21:50;;;;;;;14.47;11.00;;;0.70;17.10;;;;;;5096568;28;20180;-36
2023/01/30 05:24:16;;;;;;;13.53;11.00;;;0.70;4.30;;;;;;5095407;28;20228;-36
2023/01/30 05:26:41;;;;;;;14.70;11.30;;;0.80;1.00;;;;;;5094800;28;20436;-35
2023/01/30 05:29:09;;;;;;;14.63;11.60;;;0.80;1.00;;;;;;5093418;28;20188;-36
2023/01/30 05:31:34;;;;;;;14.30;10.70;;;0.80;1.00;;;;;;5093651;28;20180;-36
2023/01/30 05:34:00;;;;;;;15.87;11.13;;;0.80;1.00;;;;;;5095473;28;20713;-36
2023/01/30 05:36:26;;;;;;;13.17;10.93;;;0.80;1.00;;;;;;5093958;28;20204;-35
2023/01/30 05:38:51;;;;;;;15.30;12.10;;;0.80;1.00;;;;;;5094073;28;20176;-36
2023/01/30 05:41:17;;;;;;;12.47;11.17;;;0.90;1.00;;;;;;5097985;28;20191;-36
2023/01/30 05:43:47;;;;;;;14.47;10.50;;;0.80;1.00;;;;;;5099706;28;20180;-36
2023/01/30 05:46:14;;;;;;;12.87;10.50;;;0.90;99.90;;;;;;5098173;28;20505;-38
2023/01/30 05:48:41;;;;;;;13.00;9.60;;;0.90;99.90;;;;;;5096951;28;20526;-37
2023/01/30 05:51:23;;;;;;;15.47;11.57;;;0.90;99.90;;;;;;5097597;28;20484;-36
2023/01/30 05:53:48;;;;;;;15.03;11.67;;;0.90;99.90;;;;;;5094447;28;20422;-37
2023/01/30 05:56:14;;;;;;;14.33;11.40;;;0.80;99.90;;;;;;5094222;28;20535;-36
2023/01/30 05:58:40;;;;;;;13.90;10.87;;;0.80;99.90;;;;;;5093738;28;20191;-36
2023/01/30 06:01:09;;;;;;;14.10;10.77;;;0.80;99.90;;;;;;5093776;28;20624;-36
2023/01/30 06:03:34;;;;;;;12.90;10.80;;;0.80;99.90;;;;;;5091664;28;20271;-36
2023/01/30 06:06:06;;;;;;;14.40;12.30;;;0.80;99.90;;;;;;5093831;28;20505;-36
2023/01/30 06:08:35;;;;;;;14.13;10.97;;;0.80;99.90;;;;;;5092846;28;20208;-36
2023/01/30 06:11:06;;;;;;;14.40;11.97;;;0.70;99.90;;;;;;5093510;28;20427;-36
2023/01/30 06:13:32;;;;;;;15.20;11.50;;;0.70;99.90;;;;;;5095042;28;20480;-36
2023/01/30 06:15:58;;;;;;;14.50;11.03;;;0.70;99.90;;;;;;5095027;28;20470;-36
2023/01/30 06:18:24;;;;;;;13.87;10.93;;;0.70;52.40;;;;;;5095115;28;20437;-37
2023/01/30 06:20:50;;;;;;;16.73;11.40;;;0.60;52.70;;;;;;5095086;28;20219;-36
2023/01/30 06:23:16;;;;;;;15.93;10.97;;;0.60;62.90;;;;;;5091718;28;20228;-37
2023/01/30 06:25:46;;;;;;;16.10;12.47;;;0.60;99.90;;;;;;5092651;28;20779;-36
2023/01/30 06:28:12;;;;;;;14.20;10.90;;;0.50;99.90;;;;;;5092846;28;20241;-37
2023/01/30 06:30:38;;;;;;;14.37;10.90;;;0.50;99.90;;;;;;5092986;28;20423;-36
2023/01/30 06:33:03;;;;;;;15.13;11.20;;;0.50;99.90;;;;;;5093009;28;20449;-36
2023/01/30 06:35:29;;;;;;;13.43;10.80;;;0.50;99.90;;;;;;5092616;28;20539;-36
2023/01/30 06:37:55;;;;;;;15.50;12.20;;;0.40;99.90;;;;;;5092951;28;20250;-36
2023/01/30 06:40:20;;;;;;;13.93;11.10;;;0.50;99.90;;;;;;5088746;28;20176;-37
2023/01/30 06:42:47;;;;;;;12.70;11.40;;;0.50;1.00;;;;;;5088865;28;20698;-38
2023/01/30 06:45:18;;;;;;;14.83;11.30;;;0.50;99.90;;;;;;5088867;28;20176;-36
2023/01/30 06:47:45;;;;;;;14.33;10.10;;;0.50;1.00;;;;;;5087937;28;20478;-39
2023/01/30 06:50:11;;;;;;;14.10;10.50;;;0.50;1.00;;;;;;5087971;28;20434;-37
2023/01/30 06:52:44;;;;;;;15.40;11.00;;;0.50;1.00;;;;;;5086921;28;20913;-38
2023/01/30 06:55:12;;;;;;;13.90;10.73;;;0.50;1.00;;;;;;5087688;28;20483;-37
2023/01/30 06:57:38;;;;;;;14.20;11.20;;;0.40;1.00;;;;;;5091408;28;20509;-37
2023/01/30 07:00:05;;;;;;;13.27;10.40;;;0.40;1.00;;;;;;5092833;28;20595;-37
2023/01/30 07:02:34;;;;;;;11.73;10.37;;;0.40;1.00;;;;;;5093951;28;20272;-37
2023/01/30 07:05:03;;;;;;;13.93;10.80;;;0.50;1.00;;;;;;5092653;28;20437;-36
2023/01/30 07:07:29;;;;;;;12.97;10.47;;;0.50;1.00;;;;;;5091975;28;20739;-37
2023/01/30 07:09:55;;;;;;;13.67;10.10;;;0.50;1.00;;;;;;5091322;28;20438;-36
2023/01/30 07:12:21;;;;;;;13.27;11.03;;;0.50;1.00;;;;;;5089654;28;20757;-37
2023/01/30 07:14:47;;;;;;;14.00;10.50;;;0.50;1.00;;;;;;5089099;28;20539;-37
2023/01/30 07:17:13;;;;;;;12.03;10.10;;;0.60;1.00;;;;;;5095220;28;20692;-37
2023/01/30 07:19:39;;;;;;;12.37;9.93;;;0.60;1.00;;;;;;5113969;28;20188;-37
2023/01/30 07:22:05;;;;;;;13.47;10.50;;;0.60;1.00;;;;;;5114506;28;20429;-37
2023/01/30 07:24:30;;;;;;;12.77;9.90;;;0.70;1.00;;;;;;5113073;28;20259;-37
2023/01/30 07:26:56;;;;;;;10.53;8.80;;;0.70;1.00;;;;;;5112639;28;20733;-37
2023/01/30 07:29:21;;;;;;;13.83;10.50;;;0.80;1.00;;;;;;5111506;28;20210;-37
2023/01/30 07:31:47;;;;;;;13.27;9.60;;;0.90;1.00;;;;;;5111653;28;20176;-37
2023/01/30 07:34:13;;;;;;;12.87;9.57;;;0.90;99.90;;;;;;5094761;28;20260;-37
2023/01/30 07:36:38;;;;;;;11.70;10.13;;;1.00;99.90;;;;;;5092386;28;20212;-36
2023/01/30 07:39:04;;;;;;;14.40;10.20;;;1.00;99.90;;;;;;5091177;28;20487;-37
2023/01/30 07:41:30;;;;;;;15.20;10.50;;;1.10;99.90;;;;;;5105051;28;20211;-37
2023/01/30 07:43:56;;;;;;;12.27;9.87;;;1.20;96.30;;;;;;5106663;28;20444;-38
2023/01/30 07:46:21;;;;;;;13.87;10.90;;;1.30;23.30;;;;;;5111174;28;20202;-36
2023/01/30 07:48:47;;;;;;;10.50;9.10;;;1.40;1.00;;;;;;5111784;28;20259;-37
2023/01/30 07:51:13;;;;;;;13.00;9.93;;;1.40;1.00;;;;;;5112708;28;20194;-37
2023/01/30 07:53:38;;;;;;;11.67;8.87;;;1.50;1.00;;;;;;5112511;28;20184;-37
2023/01/30 07:56:08;;;;;;;11.50;8.90;;;1.50;99.90;;;;;;5113000;28;20536;-38
2023/01/30 07:58:35;;;;;;;11.27;8.80;;;1.50;99.90;;;;;;5113777;28;20163;-37
2023/01/30 08:01:01;;;;;;;12.73;9.80;;;1.50;99.90;;;;;;5113545;28;20747;-38
2023/01/30 08:03:27;;;;;;;13.47;9.90;;;1.60;99.90;;;;;;5115270;28;20919;-37
2023/01/30 08:05:53;;;;;;;12.60;9.27;;;1.60;99.90;;;;;;5113494;28;20509;-37
2023/01/30 08:08:19;;;;;;;12.47;9.20;;;1.70;99.90;;;;;;5112586;28;20262;-37
2023/01/30 08:10:44;;;;;;;11.63;8.90;;;1.90;99.90;;;;;;5113974;28;20184;-37
2023/01/30 08:13:10;;;;;;;10.83;8.80;;;2.10;76.60;;;;;;5112228;28;20444;-37
2023/01/30 08:15:36;;;;;;;11.57;9.40;;;2.30;1.00;;;;;;5112086;28;20597;-37
2023/01/30 08:18:01;;;;;;;11.90;9.93;;;2.50;1.00;;;;;;5109907;28;20502;-38
2023/01/30 08:20:27;;;;;;;11.70;9.27;;;2.60;1.00;;;;;;5109638;28;20221;-37
2023/01/30 08:22:53;;;;;;;10.83;8.13;;;2.60;99.90;;;;;;5110461;28;20522;-37
2023/01/30 08:25:20;;;;;;;11.07;8.60;;;2.60;99.90;;;;;;5111651;28;20464;-37
2023/01/30 08:27:46;;;;;;;12.67;8.53;;;2.60;99.90;;;;;;5111512;28;20406;-37
2023/01/30 08:30:12;;;;;;;13.30;9.60;;;2.60;99.90;;;;;;5112046;28;20422;-37
2023/01/30 08:32:37;;;;;;;11.20;9.40;;;2.60;99.90;;;;;;5112600;28;20180;-36
2023/01/30 08:35:03;;;;;;;8.40;5.60;;;2.70;99.90;;;;;;5112667;28;20819;-37
2023/01/30 08:37:29;;;;;;;9.60;8.30;;;4.70;1.00;;;;;;5112658;28;20164;-37
2023/01/30 08:39:55;;;;;;;19.83;11.03;;;6.60;1.00;;;;;;5111537;28;20413;-39
2023/01/30 08:42:20;;;;;;;13.43;9.23;;;7.20;1.00;;;;;;5110962;28;20258;-38
2023/01/30 08:44:46;;;;;;;11.30;9.80;;;7.80;1.00;;;;;;5110982;28;20207;-37
2023/01/30 08:47:11;;;;;;;13.93;10.50;;;8.00;1.00;;;;;;5111896;28;20204;-37
2023/01/30 08:49:37;;;;;;;12.07;10.13;;;7.70;81.20;;;;;;5110419;28;20263;-38
2023/01/30 08:52:03;;;;;;;12.00;9.57;;;7.40;1.00;;;;;;5108654;28;20563;-38
2023/01/30 08:54:28;;;;;;;10.83;8.87;;;7.40;99.90;;;;;;5110253;28;20241;-36
2023/01/30 08:56:54;;;;;;;11.53;10.33;;;7.40;99.90;;;;;;5110598;28;20457;-38
2023/01/30 08:59:19;;;;;;;9.57;8.57;;;8.00;1.00;;;;;;5109746;28;20175;-38
2023/01/30 09:01:45;;;;;;;10.23;8.73;;;9.20;1.00;;;;;;5110723;28;20179;-37
2023/01/30 09:04:10;;;;;;;9.33;8.20;;;10.60;1.00;;;;;;5112597;28;20176;-38
2023/01/30 09:06:36;;;;;;;11.80;8.77;;;11.90;1.00;;;;;;5112803;28;20585;-39
2023/01/30 09:09:02;;;;;;;8.93;7.80;;;12.70;1.00;;;;;;5110321;28;20182;-38
2023/01/30 09:11:28;;;;;;;8.73;7.83;;;13.70;1.00;;;;;;5115293;28;20218;-38
2023/01/30 09:13:53;;;;;;;8.33;6.77;;;14.80;1.00;;;;;;5116236;28;20429;-39
2023/01/30 09:16:19;;;;;;;8.37;7.47;;;16.00;1.00;;;;;;5116078;28;20200;-39
2023/01/30 09:18:45;;;;;;;7.40;6.50;;;16.80;1.00;;;;;;5115434;28;20541;-39
2023/01/30 09:21:11;;;;;;;9.53;8.00;;;17.60;1.00;;;;;;5115146;28;20176;-36
2023/01/30 09:23:37;;;;;;;8.50;7.60;;;18.10;1.00;;;;;;5111738;28;20224;-36
2023/01/30 09:26:03;;;;;;;8.27;7.47;;;18.70;1.00;;;;;;5113744;28;20421;-38
2023/01/30 09:28:29;;;;;;;9.03;7.90;;;19.50;1.00;;;;;;5113350;28;20490;-37
2023/01/30 09:31:01;;;;;;;7.87;7.13;;;20.10;1.00;;;;;;5113158;28;20528;-38
2023/01/30 09:33:27;;;;;;;8.30;7.50;;;20.70;1.00;;;;;;5113484;28;20178;-38
2023/01/30 09:35:53;;;;;;;6.47;5.87;;;20.30;1.00;;;;;;5114303;28;21070;-38
2023/01/30 09:38:19;;;;;;;7.40;6.70;;;19.20;1.00;;;;;;5115862;28;20176;-37
2023/01/30 09:41:01;;;;;;;7.63;6.90;;;17.70;1.00;;;;;;5116808;28;20264;-37
2023/01/30 09:44:11;;;;;;;7.30;6.60;;;16.30;1.00;;;;;;5117087;28;20804;-38
2023/01/30 09:46:53;;;;;;;7.27;6.40;;;14.90;1.00;;;;;;5094319;28;20527;-37
2023/01/30 09:49:40;;;;;;;8.00;7.20;;;13.40;1.00;;;;;;5123020;28;20447;-37
2023/01/30 09:52:34;;;;;;;8.03;7.33;;;12.20;1.00;;;;;;5124437;28;20397;-37
2023/01/30 09:55:08;;;;;;;7.30;6.50;;;11.10;1.00;;;;;;5122732;28;20483;-37
2023/01/30 09:57:34;;;;;;;8.40;7.53;;;10.30;1.00;;;;;;5121965;28;20687;-37
2023/01/30 10:00:03;;;;;;;8.23;6.73;;;9.60;1.00;;;;;;5120581;28;20418;-37
2023/01/30 10:02:44;;;;;;;8.10;6.87;;;9.10;1.00;;;;;;5123773;28;20417;-36
2023/01/30 10:05:10;;;;;;;7.50;6.80;;;8.90;1.00;;;;;;5123851;28;20974;-37
2023/01/30 10:07:51;;;;;;;7.83;7.03;;;8.80;1.00;;;;;;5121772;28;20426;-37
2023/01/30 10:10:31;;;;;;;8.30;7.40;;;8.70;1.00;;;;;;5120233;28;20489;-39
2023/01/30 10:13:22;;;;;;;6.97;6.03;;;8.70;1.00;;;;;;5118415;28;20497;-36
2023/01/30 10:15:51;;;;;;;6.83;6.00;;;8.60;1.00;;;;;;5117061;28;20999;-38
2023/01/30 10:18:19;;;;;;;6.50;5.70;;;8.50;1.00;;;;;;5115549;28;20418;-36
2023/01/30 10:20:48;;;;;;;4.90;4.30;;;8.40;1.00;;;;;;5112509;28;20577;-37
2023/01/30 10:23:39;;;;;;;5.00;4.33;;;8.30;1.00;;;;;;5114557;28;20480;-37
2023/01/30 10:26:10;;;;;;;4.10;3.60;;;8.30;1.00;;;;;;5115075;28;20456;-37
2023/01/30 10:28:46;;;;;;;4.10;3.60;;;8.30;1.00;;;;;;5115961;28;20784;-37
2023/01/30 10:31:15;;;;;;;4.50;3.80;;;8.30;1.00;;;;;;5112344;28;20511;-38
2023/01/30 10:33:49;;;;;;;5.50;3.80;;;8.30;1.00;;;;;;5113887;28;20433;-36
2023/01/30 10:36:38;;;;;;;6.13;4.40;;;8.30;1.00;;;;;;5113938;28;20732;-36
2023/01/30 10:39:17;;;;;;;4.60;3.50;;;8.20;1.00;;;;;;5114618;28;20525;-37
2023/01/30 10:41:56;;;;;;;5.70;4.10;;;8.20;1.00;;;;;;5112887;28;20441;-36
2023/01/30 10:44:22;;;;;;;4.70;3.07;;;8.00;1.00;;;;;;5097101;28;20536;-36
2023/01/30 10:47:26;;;;;;;4.57;3.50;;;7.80;1.00;;;;;;5115938;28;20487;-37
2023/01/30 10:49:55;;;;;;;3.90;2.90;;;7.60;1.00;;;;;;5116356;28;20517;-36
2023/01/30 10:52:42;;;;;;;3.70;2.40;;;7.50;1.00;;;;;;5114995;28;20828;-36
2023/01/30 10:55:44;;;;;;;4.50;3.07;;;7.40;1.00;;;;;;5106500;28;20550;-37
2023/01/30 10:58:22;;;;;;;3.40;3.00;;;7.30;1.00;;;;;;5092891;28;20414;-37
2023/01/30 11:00:55;;;;;;;3.83;3.10;;;7.20;1.00;;;;;;5105187;28;20668;-37
2023/01/30 11:03:27;;;;;;;4.30;3.20;;;7.20;1.00;;;;;;5103428;28;20546;-37
2023/01/30 11:05:54;;;;;;;5.37;4.27;;;7.30;1.00;;;;;;5091600;28;20418;-36
2023/01/30 11:08:19;;;;;;;6.20;3.73;;;7.40;1.00;;;;;;5073737;28;20449;-36
2023/01/30 11:10:45;;;;;;;5.77;4.90;;;7.40;1.00;;;;;;5099558;28;20719;-37
2023/01/30 11:13:19;;;;;;;5.37;4.13;;;7.30;1.00;;;;;;5104285;28;20175;-38
2023/01/30 11:15:49;;;;;;;5.13;4.60;;;7.30;1.00;;;;;;5114730;28;20524;-38
2023/01/30 11:18:16;;;;;;;5.00;4.50;;;7.20;1.00;;;;;;5097741;28;20789;-38
2023/01/30 11:20:44;;;;;;;6.20;4.60;;;7.10;1.00;;;;;;5113409;28;20437;-37
2023/01/30 11:23:34;;;;;;;5.50;4.63;;;7.10;1.00;;;;;;5115529;28;20445;-37
2023/01/30 11:26:00;;;;;;;6.30;4.80;;;7.10;3.00;;;;;;5095690;28;20593;-37
2023/01/30 11:28:26;;;;;;;4.50;3.77;;;7.10;4.20;;;;;;5112477;28;20843;-37
2023/01/30 11:30:57;;;;;;;4.70;4.13;;;7.10;5.50;;;;;;5094523;28;20446;-37
2023/01/30 11:33:35;;;;;;;4.70;4.20;;;7.10;17.50;;;;;;5093249;28;20494;-38
2023/01/30 11:36:22;;;;;;;4.97;4.30;;;7.10;9.70;;;;;;5092283;28;20513;-37
2023/01/30 11:39:12;;;;;;;4.53;3.90;;;7.20;8.70;;;;;;5090643;28;20467;-37
2023/01/30 11:41:56;;;;;;;6.17;4.90;;;7.10;5.50;;;;;;5090945;28;20514;-38
2023/01/30 11:44:29;;;;;;;5.20;4.43;;;7.00;19.70;;;;;;5089519;28;20418;-37
2023/01/30 11:47:02;;;;;;;6.30;4.30;;;6.80;25.70;;;;;;5091154;28;20433;-37
2023/01/30 11:49:32;;;;;;;5.07;4.10;;;6.70;57.10;;;;;;5091117;28;20781;-37
2023/01/30 11:51:59;;;;;;;4.57;4.13;;;6.60;93.40;;;;;;5091098;28;20893;-37
2023/01/30 11:54:38;;;;;;;5.07;4.10;;;6.50;99.90;;;;;;5090015;28;20499;-37
2023/01/30 11:57:05;;;;;;;5.40;4.77;;;6.40;99.90;;;;;;5090162;28;20453;-37
2023/01/30 11:59:43;;;;;;;5.57;3.70;;;6.30;99.90;;;;;;5090109;28;20597;-38
2023/01/30 12:02:27;;;;;;;5.00;3.60;;;6.20;99.90;;;;;;5093663;28;20422;-37
2023/01/30 12:05:03;;;;;;;5.50;4.20;;;6.10;99.90;;;;;;5110055;28;20895;-40
2023/01/30 12:07:32;;;;;;;4.30;3.20;;;6.00;99.90;;;;;;5090132;28;20512;-38
2023/01/30 12:09:58;;;;;;;8.00;3.50;;;7.20;1.00;;;;;;5088325;28;20414;-38
2023/01/30 12:12:46;;;;;;;3.63;2.70;;;8.30;1.00;;;;;;5089108;28;20471;-39
2023/01/30 12:15:24;;;;;;;3.53;2.80;;;9.20;99.90;;;;;;5087693;28;20556;-39
2023/01/30 12:18:08;;;;;;;5.83;2.80;;;10.10;1.00;;;;;;5089773;28;20491;-37
2023/01/30 12:20:56;;;;;;;3.47;2.87;;;10.70;1.00;;;;;;5092724;28;20690;-38
2023/01/30 12:24:06;;;;;;;3.60;2.80;;;11.40;1.00;;;;;;5091579;28;20458;-38
2023/01/30 12:26:33;;;;;;;5.40;3.30;;;11.90;99.90;;;;;;5059597;28;20432;-38
2023/01/30 12:29:13;;;;;;;4.63;4.23;;;11.80;34.80;;;;;;5088243;28;20689;-38
2023/01/30 12:31:45;;;;;;;4.97;4.47;;;11.10;1.00;;;;;;5088404;28;20501;-38
2023/01/30 12:34:10;;;;;;;4.20;3.80;;;10.20;1.00;;;;;;5091135;28;20434;-37
2023/01/30 12:36:48;;;;;;;6.10;5.50;;;9.40;1.00;;;;;;5090394;28;20957;-37
2023/01/30 12:39:57;;;;;;;6.70;5.00;;;8.80;1.00;;;;;;5089473;28;20171;-37
2023/01/30 12:42:47;;;;;;;4.40;4.00;;;8.20;1.00;;;;;;5073942;28;20533;-37
2023/01/30 12:45:24;;;;;;;5.87;4.50;;;7.60;1.00;;;;;;5091869;28;20448;-37
2023/01/30 12:48:13;;;;;;;5.13;4.20;;;7.30;18.30;;;;;;5094905;28;20414;-37
2023/01/30 12:50:45;;;;;;;5.60;4.10;;;7.00;99.90;;;;;;5093933;28;20422;-36
2023/01/30 12:53:19;;;;;;;5.00;3.70;;;6.70;99.90;;;;;;5096059;28;20426;-36
2023/01/30 12:55:49;;;;;;;5.00;4.10;;;6.50;99.90;;;;;;5095860;28;20489;-37
2023/01/30 12:58:38;;;;;;;4.37;3.83;;;6.30;99.90;;;;;;5096834;28;20768;-36
2023/01/30 13:01:15;;;;;;;4.53;4.13;;;6.10;1.00;;;;;;5113118;28;20917;-37
2023/01/30 13:03:49;;;;;;;6.50;5.50;;;6.00;1.00;;;;;;5109915;28;20429;-36
2023/01/30 13:06:47;;;;;;;6.00;4.43;;;5.90;1.00;;;;;;5092168;28;20698;-36
2023/01/30 13:09:35;;;;;;;4.90;4.47;;;5.80;49.70;;;;;;5057196;28;20481;-36